createdAt,value
2018-10-06T00:01:00.225Z,99822.34
2018-10-06T00:04:04.591Z,99819.86
2018-10-06T00:07:07.517Z,99819.27
2018-10-06T00:10:10.484Z,99816.67
2018-10-06T00:13:13.409Z,99813.52
2018-10-06T00:16:16.342Z,99810.98
2018-10-06T00:19:19.242Z,99812.30
2018-10-06T00:22:29.064Z,99804.64
2018-10-06T00:25:32.010Z,99810.78
2018-10-06T00:28:34.974Z,99798.45
2018-10-06T00:31:37.913Z,99798.95
2018-10-06T00:34:40.818Z,99802.15
2018-10-06T00:37:43.753Z,99799.30
2018-10-06T00:40:46.641Z,99790.65
2018-10-06T00:43:49.907Z,99781.97
2018-10-06T00:46:52.857Z,99780.45
2018-10-06T00:49:55.804Z,99777.63
2018-10-06T00:52:58.756Z,99777.59
2018-10-06T00:56:01.688Z,99776.08
2018-10-06T00:59:04.807Z,99770.28
2018-10-06T01:02:07.734Z,99779.89
2018-10-06T01:05:10.634Z,99777.78
2018-10-06T01:08:13.581Z,99775.98
2018-10-06T01:11:16.510Z,99775.01
2018-10-06T01:14:19.463Z,99770.68
2018-10-06T01:17:22.430Z,99768.33
2018-10-06T01:20:25.392Z,99762.95
2018-10-06T01:23:28.415Z,99759.36
2018-10-06T01:26:31.398Z,99755.62
2018-10-06T01:29:34.329Z,99751.38
2018-10-06T01:32:37.263Z,99746.30
2018-10-06T01:35:40.182Z,99746.33
2018-10-06T01:38:43.761Z,99744.80
2018-10-06T01:41:46.690Z,99745.31
2018-10-06T01:44:49.616Z,99743.05
2018-10-06T01:47:52.568Z,99745.06
2018-10-06T01:50:55.543Z,99740.99
2018-10-06T01:53:58.425Z,99736.41
2018-10-06T01:57:01.474Z,99734.72
2018-10-06T02:00:04.529Z,99731.27
2018-10-06T02:03:07.414Z,99723.75
2018-10-06T02:06:10.402Z,99721.75
2018-10-06T02:09:13.319Z,99723.56
2018-10-06T02:12:16.250Z,99721.31
2018-10-06T02:15:19.094Z,99722.43
2018-10-06T02:18:22.049Z,99718.80
2018-10-06T02:21:25.048Z,99720.33
2018-10-06T02:24:27.985Z,99711.41
2018-10-06T02:27:30.933Z,99710.07
2018-10-06T02:30:33.894Z,99698.95
2018-10-06T02:33:36.810Z,99706.66
2018-10-06T02:36:39.760Z,99700.80
2018-10-06T02:39:42.666Z,99697.05
2018-10-06T02:42:45.620Z,99701.77
2018-10-06T02:45:48.626Z,99698.08
2018-10-06T02:48:51.524Z,99698.86
2018-10-06T02:51:54.437Z,99694.89
2018-10-06T02:54:57.332Z,99690.83
2018-10-06T02:58:00.304Z,99694.77
2018-10-06T03:01:03.265Z,99688.84
2018-10-06T03:04:06.239Z,99688.25
2018-10-06T03:07:09.268Z,99688.29
2018-10-06T03:10:12.154Z,99684.66
2018-10-06T03:13:15.061Z,99679.61
2018-10-06T03:16:17.988Z,99682.61
2018-10-06T03:19:20.850Z,99682.06
2018-10-06T03:22:23.773Z,99684.84
2018-10-06T03:25:26.688Z,99677.05
2018-10-06T03:28:29.669Z,99670.27
2018-10-06T03:31:32.578Z,99663.23
2018-10-06T03:34:35.553Z,99659.17
2018-10-06T03:37:38.514Z,99655.85
2018-10-06T03:40:41.550Z,99660.59
2018-10-06T03:43:44.481Z,99653.22
2018-10-06T03:46:47.453Z,99653.25
2018-10-06T03:49:50.428Z,99651.24
2018-10-06T03:52:53.422Z,99643.13
2018-10-06T03:55:56.367Z,99640.24
2018-10-06T03:58:59.314Z,99633.34
2018-10-06T04:02:02.217Z,99632.98
2018-10-06T04:05:05.249Z,99621.61
2018-10-06T04:08:08.232Z,99620.24
2018-10-06T04:11:11.165Z,99619.19
2018-10-06T04:14:14.074Z,99613.03
2018-10-06T04:17:17.009Z,99613.27
2018-10-06T04:20:19.895Z,99608.81
2018-10-06T04:23:22.841Z,99606.41
2018-10-06T04:26:25.853Z,99592.71
2018-10-06T04:29:28.765Z,99592.41
2018-10-06T04:32:31.665Z,99592.50
2018-10-06T04:35:34.623Z,99594.05
2018-10-06T04:38:37.537Z,99590.30
2018-10-06T04:41:40.482Z,99587.58
2018-10-06T04:44:43.512Z,99586.59
2018-10-06T04:47:46.437Z,99590.60
2018-10-06T04:50:49.302Z,99590.99
2018-10-06T04:53:52.220Z,99588.19
2018-10-06T04:56:55.169Z,99587.68
2018-10-06T04:59:58.089Z,99585.63
2018-10-06T05:03:00.965Z,99582.02
2018-10-06T05:06:03.918Z,99574.78
2018-10-06T05:09:07.909Z,99569.13
2018-10-06T05:12:10.831Z,99568.50
2018-10-06T05:15:13.790Z,99563.37
2018-10-06T05:18:16.722Z,99566.17
2018-10-06T05:21:19.613Z,99566.37
2018-10-06T05:24:22.521Z,99561.88
2018-10-06T05:27:25.491Z,99554.92
2018-10-06T05:30:28.480Z,99554.55
2018-10-06T05:33:31.482Z,99563.67
2018-10-06T05:36:34.425Z,99555.47
2018-10-06T05:39:37.358Z,99561.63
2018-10-06T05:42:40.433Z,99554.38
2018-10-06T05:45:43.361Z,99559.16
2018-10-06T05:48:46.273Z,99561.22
2018-10-06T05:51:49.218Z,99558.87
2018-10-06T05:54:52.282Z,99563.58
2018-10-06T05:57:55.610Z,99561.41
2018-10-06T06:00:58.593Z,99558.48
2018-10-06T06:04:01.598Z,99558.38
2018-10-06T06:07:04.597Z,99555.66
2018-10-06T06:10:07.818Z,99561.60
2018-10-06T06:13:10.737Z,99560.12
2018-10-06T06:16:13.673Z,99570.53
2018-10-06T06:19:16.673Z,99573.12
2018-10-06T06:22:19.659Z,99570.44
2018-10-06T06:25:22.625Z,99566.34
2018-10-06T06:28:25.547Z,99578.52
2018-10-06T06:31:28.549Z,99570.55
2018-10-06T06:34:31.577Z,99570.00
2018-10-06T06:37:34.522Z,99568.88
2018-10-06T06:40:37.440Z,99561.95
2018-10-06T06:43:40.414Z,99563.61
2018-10-06T06:46:43.380Z,99549.98
2018-10-06T06:49:46.325Z,99555.35
2018-10-06T06:52:49.265Z,99547.52
2018-10-06T06:55:52.205Z,99547.77
2018-10-06T06:58:55.855Z,99544.70
2018-10-06T07:01:58.819Z,99538.05
2018-10-06T07:05:01.746Z,99537.49
2018-10-06T07:08:04.796Z,99533.74
2018-10-06T07:11:07.755Z,99529.10
2018-10-06T07:14:10.737Z,99530.33
2018-10-06T07:17:13.680Z,99521.25
2018-10-06T07:20:16.622Z,99521.09
2018-10-06T07:23:19.561Z,99523.17
2018-10-06T07:26:22.532Z,99519.16
2018-10-06T07:29:25.534Z,99516.45
2018-10-06T07:32:35.048Z,99515.69
2018-10-06T07:35:37.998Z,99509.50
2018-10-06T07:38:40.897Z,99511.00
2018-10-06T07:41:43.783Z,99512.27
2018-10-06T07:44:48.541Z,99509.30
2018-10-06T07:47:51.429Z,99511.03
2018-10-06T07:50:54.372Z,99507.13
2018-10-06T07:53:57.245Z,99506.20
2018-10-06T07:57:00.211Z,99501.70
2018-10-06T08:00:03.185Z,99501.23
2018-10-06T08:03:06.293Z,99491.98
2018-10-06T08:06:09.269Z,99486.20
2018-10-06T08:09:12.180Z,99484.88
2018-10-06T08:12:15.134Z,99479.38
2018-10-06T08:15:18.122Z,99478.00
2018-10-06T08:18:21.110Z,99480.42
2018-10-06T08:21:24.057Z,99477.38
2018-10-06T08:24:26.982Z,99469.04
2018-10-06T08:27:29.862Z,99474.98
2018-10-06T08:30:32.928Z,99472.92
2018-10-06T08:33:35.956Z,99475.73
2018-10-06T08:36:38.921Z,99470.59
2018-10-06T08:39:41.825Z,99474.23
2018-10-06T08:42:44.879Z,99465.58
2018-10-06T08:45:47.743Z,99463.45
2018-10-06T08:48:50.679Z,99469.19
2018-10-06T08:51:53.587Z,99464.64
2018-10-06T08:54:56.513Z,99469.55
2018-10-06T08:57:59.480Z,99459.46
2018-10-06T09:01:02.397Z,99447.55
2018-10-06T09:04:05.748Z,99446.77
2018-10-06T09:07:08.701Z,99446.45
2018-10-06T09:10:12.169Z,99440.35
2018-10-06T09:13:15.074Z,99444.17
2018-10-06T09:16:18.027Z,99447.82
2018-10-06T09:19:20.975Z,99434.64
2018-10-06T09:22:23.892Z,99438.66
2018-10-06T09:25:26.836Z,99438.81
2018-10-06T09:28:29.749Z,99434.34
2018-10-06T09:31:32.750Z,99429.52
2018-10-06T09:34:35.726Z,99419.90
2018-10-06T09:37:38.684Z,99422.14
2018-10-06T09:40:41.592Z,99420.47
2018-10-06T09:43:44.697Z,99408.21
2018-10-06T09:46:47.592Z,99405.98
2018-10-06T09:49:50.503Z,99406.83
2018-10-06T09:52:53.457Z,99406.34
2018-10-06T09:55:56.374Z,99409.98
2018-10-06T09:58:59.284Z,99399.22
2018-10-06T10:02:08.034Z,99392.44
2018-10-06T10:05:16.503Z,99384.27
2018-10-06T10:08:19.396Z,99380.16
2018-10-06T10:11:22.363Z,99378.09
2018-10-06T10:14:25.318Z,99375.13
2018-10-06T10:17:28.247Z,99380.69
2018-10-06T10:20:31.127Z,99379.56
2018-10-06T10:23:34.113Z,99373.66
2018-10-06T10:26:37.070Z,99374.11
2018-10-06T10:29:40.061Z,99374.45
2018-10-06T10:32:42.978Z,99367.83
2018-10-06T10:35:45.913Z,99367.03
2018-10-06T10:38:48.991Z,99360.77
2018-10-06T10:41:51.886Z,99361.97
2018-10-06T10:44:54.820Z,99358.86
2018-10-06T10:47:57.749Z,99351.03
2018-10-06T10:51:00.678Z,99349.00
2018-10-06T10:54:03.572Z,99347.83
2018-10-06T10:57:06.598Z,99350.45
2018-10-06T11:00:09.712Z,99349.73
2018-10-06T11:03:12.592Z,99342.89
2018-10-06T11:06:15.540Z,99349.24
2018-10-06T11:09:18.445Z,99347.58
2018-10-06T11:12:21.424Z,99349.91
2018-10-06T11:15:24.398Z,99345.69
2018-10-06T11:18:27.386Z,99342.55
2018-10-06T11:21:30.346Z,99341.59
2018-10-06T11:24:33.301Z,99339.25
2018-10-06T11:27:36.237Z,99335.56
2018-10-06T11:30:39.194Z,99336.14
2018-10-06T11:33:42.126Z,99333.01
2018-10-06T11:36:45.021Z,99334.95
2018-10-06T11:39:47.953Z,99321.63
2018-10-06T11:42:50.844Z,99318.56
2018-10-06T11:45:53.762Z,99315.09
2018-10-06T11:48:56.694Z,99312.19
2018-10-06T11:51:59.606Z,99306.52
2018-10-06T11:55:02.509Z,99305.83
2018-10-06T11:58:05.443Z,99309.33
2018-10-06T12:01:09.758Z,99302.41
2018-10-06T12:04:12.756Z,99301.22
2018-10-06T12:07:15.671Z,99307.44
2018-10-06T12:10:18.604Z,99299.73
2018-10-06T12:13:21.584Z,99295.03
2018-10-06T12:16:24.529Z,99292.80
2018-10-06T12:19:27.405Z,99290.79
2018-10-06T12:22:30.349Z,99290.86
2018-10-06T12:25:33.293Z,99284.70
2018-10-06T12:28:36.241Z,99284.59
2018-10-06T12:31:39.192Z,99275.75
2018-10-06T12:34:42.174Z,99286.52
2018-10-06T12:37:45.157Z,99285.89
2018-10-06T12:40:48.070Z,99289.95
2018-10-06T12:43:51.047Z,99274.50
2018-10-06T12:46:54.154Z,99275.23
2018-10-06T12:49:57.082Z,99269.39
2018-10-06T12:53:00.033Z,99264.03
2018-10-06T12:56:02.951Z,99257.88
2018-10-06T12:59:06.105Z,99262.16
2018-10-06T13:02:09.039Z,99267.00
2018-10-06T13:05:11.955Z,99258.50
2018-10-06T13:08:14.908Z,99261.87
2018-10-06T13:11:17.842Z,99264.76
2018-10-06T13:14:20.758Z,99265.69
2018-10-06T13:17:23.673Z,99253.84
2018-10-06T13:20:26.600Z,99252.02
2018-10-06T13:23:29.525Z,99260.37
2018-10-06T13:26:32.492Z,99260.42
2018-10-06T13:29:35.497Z,99263.40
2018-10-06T13:32:38.465Z,99257.15
2018-10-06T13:35:41.405Z,99248.14
2018-10-06T13:38:44.374Z,99248.36
2018-10-06T13:41:47.365Z,99252.63
2018-10-06T13:44:50.301Z,99257.42
2018-10-06T13:47:53.549Z,99244.30
2018-10-06T13:50:56.570Z,99247.69
2018-10-06T13:53:59.829Z,99245.77
2018-10-06T13:57:02.902Z,99234.44
2018-10-06T14:00:05.945Z,99237.22
2018-10-06T14:03:08.901Z,99225.13
2018-10-06T14:06:11.849Z,99222.59
2018-10-06T14:09:14.789Z,99216.26
2018-10-06T14:12:17.717Z,99222.62
2018-10-06T14:15:20.633Z,99207.58
2018-10-06T14:18:23.596Z,99201.07
2018-10-06T14:21:26.529Z,99199.41
2018-10-06T14:24:29.423Z,99200.59
2018-10-06T14:27:32.372Z,99197.76
2018-10-06T14:30:35.329Z,99190.91
2018-10-06T14:33:38.260Z,99190.56
2018-10-06T14:36:41.267Z,99183.55
2018-10-06T14:39:44.221Z,99185.41
2018-10-06T14:42:47.226Z,99174.04
2018-10-06T14:45:50.119Z,99173.41
2018-10-06T14:48:53.045Z,99174.83
2018-10-06T14:51:55.985Z,99168.33
2018-10-06T14:54:58.927Z,99167.97
2018-10-06T14:58:01.892Z,99160.27
2018-10-06T15:01:04.989Z,99158.78
2018-10-06T15:04:07.878Z,99165.20
2018-10-06T15:07:10.828Z,99162.95
2018-10-06T15:10:13.825Z,99157.23
2018-10-06T15:13:16.708Z,99154.19
2018-10-06T15:16:19.776Z,99150.77
2018-10-06T15:19:22.780Z,99150.87
2018-10-06T15:22:25.840Z,99149.62
2018-10-06T15:25:28.780Z,99146.95
2018-10-06T15:28:31.728Z,99150.88
2018-10-06T15:31:34.699Z,99146.63
2018-10-06T15:34:37.692Z,99150.53
2018-10-06T15:37:40.727Z,99150.20
2018-10-06T15:40:43.717Z,99144.83
2018-10-06T15:43:46.720Z,99153.59
2018-10-06T15:46:49.704Z,99154.59
2018-10-06T15:49:52.632Z,99157.13
2018-10-06T15:52:55.518Z,99160.93
2018-10-06T15:55:58.808Z,99159.20
2018-10-06T15:59:01.813Z,99169.33
2018-10-06T16:02:04.844Z,99164.63
2018-10-06T16:05:07.714Z,99167.52
2018-10-06T16:08:10.613Z,99167.38
2018-10-06T16:11:13.508Z,99165.52
2018-10-06T16:14:16.458Z,99168.65
2018-10-06T16:17:19.424Z,99169.59
2018-10-06T16:20:25.443Z,99171.04
2018-10-06T16:23:29.078Z,99168.46
2018-10-06T16:26:32.591Z,99168.33
2018-10-06T16:29:35.942Z,99168.70
2018-10-06T16:32:38.924Z,99164.75
2018-10-06T16:35:42.441Z,99162.72
2018-10-06T16:38:45.344Z,99162.45
2018-10-06T16:41:48.300Z,99161.30
2018-10-06T16:44:51.310Z,99168.66
2018-10-06T16:47:54.729Z,99160.51
2018-10-06T16:50:58.198Z,99161.02
2018-10-06T16:54:01.501Z,99162.64
2018-10-06T16:57:04.521Z,99171.83
2018-10-06T17:00:08.637Z,99170.79
2018-10-06T17:03:12.038Z,99171.48
2018-10-06T17:06:15.309Z,99175.85
2018-10-06T17:09:18.780Z,99170.06
2018-10-06T17:12:22.839Z,99176.50
2018-10-06T17:15:25.736Z,99179.95
2018-10-06T17:18:28.907Z,99184.23
2018-10-06T17:21:32.022Z,99182.73
2018-10-06T17:24:35.583Z,99177.86
2018-10-06T17:27:39.092Z,99178.77
2018-10-06T17:30:42.518Z,99179.00
2018-10-06T17:33:45.649Z,99181.20
2018-10-06T17:36:48.617Z,99189.92
2018-10-06T17:39:51.983Z,99194.42
2018-10-06T17:42:55.250Z,99192.50
2018-10-06T17:45:58.801Z,99188.16
2018-10-06T17:49:02.019Z,99194.22
2018-10-06T17:52:04.963Z,99199.48
2018-10-06T17:55:08.066Z,99202.64
2018-10-06T17:58:11.381Z,99204.80
2018-10-06T18:01:14.770Z,99204.67
2018-10-06T18:04:17.960Z,99211.59
2018-10-06T18:07:21.216Z,99214.37
2018-10-06T18:10:24.206Z,99213.70
2018-10-06T18:13:27.469Z,99212.93
2018-10-06T18:16:30.802Z,99214.55
2018-10-06T18:19:34.656Z,99217.98
2018-10-06T18:22:38.245Z,99223.12
2018-10-06T18:25:41.679Z,99218.77
2018-10-06T18:28:44.881Z,99230.71
2018-10-06T18:31:49.004Z,99225.52
2018-10-06T18:34:52.277Z,99239.94
2018-10-06T18:37:55.247Z,99231.90
2018-10-06T18:40:59.036Z,99233.48
2018-10-06T18:44:02.133Z,99240.25
2018-10-06T18:47:05.562Z,99246.70
2018-10-06T18:50:08.530Z,99238.08
2018-10-06T18:53:11.894Z,99239.10
2018-10-06T18:56:15.749Z,99245.64
2018-10-06T18:59:19.395Z,99247.94
2018-10-06T19:02:23.319Z,99248.80
2018-10-06T19:05:26.378Z,99259.69
2018-10-06T19:08:29.569Z,99259.94
2018-10-06T19:11:32.609Z,99270.91
2018-10-06T19:14:35.959Z,99274.88
2018-10-06T19:17:39.064Z,99273.81
2018-10-06T19:20:43.814Z,99269.78
2018-10-06T19:23:47.740Z,99282.53
2018-10-06T19:26:51.202Z,99282.41
2018-10-06T19:29:54.549Z,99282.69
2018-10-06T19:32:57.505Z,99285.84
2018-10-06T19:36:00.927Z,99282.66
2018-10-06T19:39:06.137Z,99283.77
2018-10-06T19:42:09.368Z,99286.45
2018-10-06T19:45:12.532Z,99286.41
2018-10-06T19:48:15.950Z,99288.77
2018-10-06T19:51:19.225Z,99292.95
2018-10-06T19:54:22.797Z,99291.33
2018-10-06T19:57:26.197Z,99289.84
2018-10-06T20:00:29.450Z,99300.45
2018-10-06T20:03:32.738Z,99298.74
2018-10-06T20:06:36.313Z,99299.70
2018-10-06T20:09:39.222Z,99302.80
2018-10-06T20:12:42.516Z,99304.58
2018-10-06T20:15:45.921Z,99305.38
2018-10-06T20:18:49.724Z,99306.53
2018-10-06T20:21:52.756Z,99313.00
2018-10-06T20:24:56.313Z,99311.91
2018-10-06T20:28:00.892Z,99315.25
2018-10-06T20:31:04.704Z,99325.13
2018-10-06T20:34:08.698Z,99326.69
2018-10-06T20:37:11.773Z,99326.48
2018-10-06T20:40:15.579Z,99321.59
2018-10-06T20:43:19.795Z,99324.82
2018-10-06T20:46:23.643Z,99334.84
2018-10-06T20:49:26.926Z,99339.23
2018-10-06T20:52:30.344Z,99333.24
2018-10-06T20:55:33.561Z,99347.81
2018-10-06T20:58:36.540Z,99347.27
2018-10-06T21:01:39.864Z,99343.98
2018-10-06T21:04:42.959Z,99352.30
2018-10-06T21:07:45.958Z,99368.36
2018-10-06T21:10:49.072Z,99377.22
2018-10-06T21:13:52.020Z,99377.33
2018-10-06T21:16:54.978Z,99382.22
2018-10-06T21:19:57.985Z,99378.89
2018-10-06T21:23:00.890Z,99370.11
2018-10-06T21:26:04.119Z,99385.54
2018-10-06T21:29:07.169Z,99387.00
2018-10-06T21:32:10.218Z,99388.31
2018-10-06T21:35:13.117Z,99387.16
2018-10-06T21:38:16.039Z,99393.83
2018-10-06T21:41:18.978Z,99402.63
2018-10-06T21:44:21.889Z,99405.05
2018-10-06T21:47:24.824Z,99415.72
2018-10-06T21:50:27.764Z,99417.27
2018-10-06T21:53:30.701Z,99425.50
2018-10-06T21:56:33.665Z,99427.39
2018-10-06T21:59:36.596Z,99441.64
2018-10-06T22:02:39.839Z,99455.12
2018-10-06T22:05:42.786Z,99464.89
2018-10-06T22:08:50.258Z,99465.63
2018-10-06T22:11:53.474Z,99480.64
2018-10-06T22:14:56.488Z,99483.98
2018-10-06T22:17:59.395Z,99488.98
2018-10-06T22:21:02.269Z,99483.25
2018-10-06T22:24:05.195Z,99493.67
2018-10-06T22:27:08.149Z,99496.66
2018-10-06T22:30:11.128Z,99492.70
2018-10-06T22:33:14.120Z,99494.83
2018-10-06T22:36:17.041Z,99494.52
2018-10-06T22:39:20.012Z,99495.45
2018-10-06T22:42:22.925Z,99496.19
2018-10-06T22:45:25.864Z,99498.92
2018-10-06T22:48:28.766Z,99498.06
2018-10-06T22:51:31.689Z,99500.86
2018-10-06T22:54:34.665Z,99489.73
2018-10-06T22:57:37.565Z,99487.96
2018-10-06T23:00:40.498Z,99483.28
2018-10-06T23:03:43.417Z,99478.48
2018-10-06T23:06:46.481Z,99476.88
2018-10-06T23:09:49.437Z,99485.84
2018-10-06T23:12:52.354Z,99487.50
2018-10-06T23:15:55.285Z,99483.86
2018-10-06T23:18:58.213Z,99485.73
2018-10-06T23:22:01.212Z,99490.84
2018-10-06T23:25:04.150Z,99498.25
2018-10-06T23:28:07.069Z,99489.58
2018-10-06T23:31:10.006Z,99490.50
2018-10-06T23:34:12.930Z,99492.57
2018-10-06T23:37:15.889Z,99488.64
2018-10-06T23:40:18.842Z,99483.61
2018-10-06T23:43:21.766Z,99495.56
2018-10-06T23:46:24.745Z,99501.84
2018-10-06T23:49:27.669Z,99512.79
2018-10-06T23:52:30.604Z,99518.34
2018-10-06T23:55:33.473Z,99518.81
2018-10-06T23:58:36.435Z,99518.13
